sensor_id;sensor_type;location;lat;lon;timestamp;temperature;humidity
64563;SHT31;50961;48.184;11.636;2022-07-21T00:00:28;24.12;68.65
64563;SHT31;50961;48.184;11.636;2022-07-21T00:02:55;23.79;68.75
64563;SHT31;50961;48.184;11.636;2022-07-21T00:05:21;23.89;69.00
64563;SHT31;50961;48.184;11.636;2022-07-21T00:07:47;23.90;69.53
64563;SHT31;50961;48.184;11.636;2022-07-21T00:10:13;23.85;70.00
64563;SHT31;50961;48.184;11.636;2022-07-21T00:12:39;23.77;69.31
64563;SHT31;50961;48.184;11.636;2022-07-21T00:15:06;23.69;68.11
64563;SHT31;50961;48.184;11.636;2022-07-21T00:17:32;23.48;69.43
64563;SHT31;50961;48.184;11.636;2022-07-21T00:19:59;23.59;68.45
64563;SHT31;50961;48.184;11.636;2022-07-21T00:22:24;23.43;68.97
64563;SHT31;50961;48.184;11.636;2022-07-21T00:24:50;23.48;69.19
64563;SHT31;50961;48.184;11.636;2022-07-21T00:27:15;23.43;69.53
64563;SHT31;50961;48.184;11.636;2022-07-21T00:29:41;23.48;68.91
64563;SHT31;50961;48.184;11.636;2022-07-21T00:32:06;23.44;69.80
64563;SHT31;50961;48.184;11.636;2022-07-21T00:34:32;23.44;69.93
64563;SHT31;50961;48.184;11.636;2022-07-21T00:36:57;23.38;70.21
64563;SHT31;50961;48.184;11.636;2022-07-21T00:39:23;23.34;70.75
64563;SHT31;50961;48.184;11.636;2022-07-21T00:41:48;23.34;71.57
64563;SHT31;50961;48.184;11.636;2022-07-21T00:44:25;23.28;72.44
64563;SHT31;50961;48.184;11.636;2022-07-21T00:46:51;23.30;72.32
64563;SHT31;50961;48.184;11.636;2022-07-21T00:49:16;23.30;70.92
64563;SHT31;50961;48.184;11.636;2022-07-21T00:51:42;22.98;72.26
64563;SHT31;50961;48.184;11.636;2022-07-21T00:54:08;22.99;72.12
64563;SHT31;50961;48.184;11.636;2022-07-21T00:56:34;22.90;72.09
64563;SHT31;50961;48.184;11.636;2022-07-21T00:59:00;22.75;73.32
64563;SHT31;50961;48.184;11.636;2022-07-21T01:01:25;22.72;73.08
64563;SHT31;50961;48.184;11.636;2022-07-21T01:03:50;22.85;72.50
64563;SHT31;50961;48.184;11.636;2022-07-21T01:06:16;22.82;72.44
64563;SHT31;50961;48.184;11.636;2022-07-21T01:08:41;22.89;72.32
64563;SHT31;50961;48.184;11.636;2022-07-21T01:11:07;22.89;72.56
64563;SHT31;50961;48.184;11.636;2022-07-21T01:13:32;22.92;72.77
64563;SHT31;50961;48.184;11.636;2022-07-21T01:15:58;22.92;73.52
64563;SHT31;50961;48.184;11.636;2022-07-21T01:18:24;22.83;73.75
64563;SHT31;50961;48.184;11.636;2022-07-21T01:20:54;22.81;73.81
64563;SHT31;50961;48.184;11.636;2022-07-21T01:23:21;22.76;74.04
64563;SHT31;50961;48.184;11.636;2022-07-21T01:25:48;22.68;74.54
64563;SHT31;50961;48.184;11.636;2022-07-21T01:28:14;22.62;74.90
64563;SHT31;50961;48.184;11.636;2022-07-21T01:30:39;22.72;74.60
64563;SHT31;50961;48.184;11.636;2022-07-21T01:33:05;22.66;74.96
64563;SHT31;50961;48.184;11.636;2022-07-21T01:35:30;22.62;75.53
64563;SHT31;50961;48.184;11.636;2022-07-21T01:37:57;22.69;74.92
64563;SHT31;50961;48.184;11.636;2022-07-21T01:40:23;22.69;74.96
64563;SHT31;50961;48.184;11.636;2022-07-21T01:43:07;22.68;74.57
64563;SHT31;50961;48.184;11.636;2022-07-21T01:45:33;22.66;75.02
64563;SHT31;50961;48.184;11.636;2022-07-21T01:47:59;22.76;74.80
64563;SHT31;50961;48.184;11.636;2022-07-21T01:50:25;22.76;74.79
64563;SHT31;50961;48.184;11.636;2022-07-21T01:52:57;22.86;74.17
64563;SHT31;50961;48.184;11.636;2022-07-21T01:55:24;22.89;74.26
64563;SHT31;50961;48.184;11.636;2022-07-21T01:57:50;22.95;74.21
64563;SHT31;50961;48.184;11.636;2022-07-21T02:00:16;22.93;74.39
64563;SHT31;50961;48.184;11.636;2022-07-21T02:02:42;22.83;74.79
64563;SHT31;50961;48.184;11.636;2022-07-21T02:05:08;22.82;74.71
64563;SHT31;50961;48.184;11.636;2022-07-21T02:07:33;22.86;74.54
64563;SHT31;50961;48.184;11.636;2022-07-21T02:09:58;22.89;74.42
64563;SHT31;50961;48.184;11.636;2022-07-21T02:12:24;22.86;74.17
64563;SHT31;50961;48.184;11.636;2022-07-21T02:14:49;22.85;75.03
64563;SHT31;50961;48.184;11.636;2022-07-21T02:17:15;22.79;75.16
64563;SHT31;50961;48.184;11.636;2022-07-21T02:19:40;22.83;74.69
64563;SHT31;50961;48.184;11.636;2022-07-21T02:22:06;22.71;75.11
64563;SHT31;50961;48.184;11.636;2022-07-21T02:24:31;22.45;75.36
64563;SHT31;50961;48.184;11.636;2022-07-21T02:26:56;22.61;75.08
64563;SHT31;50961;48.184;11.636;2022-07-21T02:29:22;22.69;74.66
64563;SHT31;50961;48.184;11.636;2022-07-21T02:31:47;22.73;75.14
64563;SHT31;50961;48.184;11.636;2022-07-21T02:34:13;22.79;74.66
64563;SHT31;50961;48.184;11.636;2022-07-21T02:36:38;22.77;74.74
64563;SHT31;50961;48.184;11.636;2022-07-21T02:39:04;22.82;74.65
64563;SHT31;50961;48.184;11.636;2022-07-21T02:41:30;22.77;75.29
64563;SHT31;50961;48.184;11.636;2022-07-21T02:43:56;22.72;75.53
64563;SHT31;50961;48.184;11.636;2022-07-21T02:46:21;22.72;75.67
64563;SHT31;50961;48.184;11.636;2022-07-21T02:48:47;22.68;75.28
64563;SHT31;50961;48.184;11.636;2022-07-21T02:51:12;22.73;75.12
64563;SHT31;50961;48.184;11.636;2022-07-21T02:53:38;22.73;74.86
64563;SHT31;50961;48.184;11.636;2022-07-21T02:56:03;22.65;75.67
64563;SHT31;50961;48.184;11.636;2022-07-21T02:58:30;22.65;75.34
64563;SHT31;50961;48.184;11.636;2022-07-21T03:01:05;22.65;75.38
64563;SHT31;50961;48.184;11.636;2022-07-21T03:03:34;22.65;75.39
64563;SHT31;50961;48.184;11.636;2022-07-21T03:06:01;22.65;75.28
64563;SHT31;50961;48.184;11.636;2022-07-21T03:08:27;22.71;74.99
64563;SHT31;50961;48.184;11.636;2022-07-21T03:10:53;22.71;75.02
64563;SHT31;50961;48.184;11.636;2022-07-21T03:13:19;22.68;75.55
64563;SHT31;50961;48.184;11.636;2022-07-21T03:15:45;22.59;75.83
64563;SHT31;50961;48.184;11.636;2022-07-21T03:18:10;22.58;75.97
64563;SHT31;50961;48.184;11.636;2022-07-21T03:20:39;22.56;76.34
64563;SHT31;50961;48.184;11.636;2022-07-21T03:23:04;22.59;76.69
64563;SHT31;50961;48.184;11.636;2022-07-21T03:25:31;22.56;77.09
64563;SHT31;50961;48.184;11.636;2022-07-21T03:27:56;22.40;77.51
64563;SHT31;50961;48.184;11.636;2022-07-21T03:30:22;22.48;77.53
64563;SHT31;50961;48.184;11.636;2022-07-21T03:32:49;22.41;77.76
64563;SHT31;50961;48.184;11.636;2022-07-21T03:35:14;22.42;78.07
64563;SHT31;50961;48.184;11.636;2022-07-21T03:40:12;22.45;77.79
64563;SHT31;50961;48.184;11.636;2022-07-21T03:42:37;22.35;78.31
64563;SHT31;50961;48.184;11.636;2022-07-21T03:45:03;22.21;78.79
64563;SHT31;50961;48.184;11.636;2022-07-21T03:47:29;22.22;78.69
64563;SHT31;50961;48.184;11.636;2022-07-21T03:49:54;22.10;78.86
64563;SHT31;50961;48.184;11.636;2022-07-21T03:52:19;22.15;78.81
64563;SHT31;50961;48.184;11.636;2022-07-21T03:54:45;22.18;78.31
64563;SHT31;50961;48.184;11.636;2022-07-21T03:57:10;22.27;78.31
64563;SHT31;50961;48.184;11.636;2022-07-21T03:59:36;22.28;78.21
64563;SHT31;50961;48.184;11.636;2022-07-21T04:02:01;22.35;78.48
64563;SHT31;50961;48.184;11.636;2022-07-21T04:04:26;22.41;78.06
64563;SHT31;50961;48.184;11.636;2022-07-21T04:06:52;22.27;78.27
64563;SHT31;50961;48.184;11.636;2022-07-21T04:09:17;22.37;78.43
64563;SHT31;50961;48.184;11.636;2022-07-21T04:11:43;22.38;77.95
64563;SHT31;50961;48.184;11.636;2022-07-21T04:14:09;22.31;77.69
64563;SHT31;50961;48.184;11.636;2022-07-21T04:16:34;22.21;77.83
64563;SHT31;50961;48.184;11.636;2022-07-21T04:18:59;22.18;78.14
64563;SHT31;50961;48.184;11.636;2022-07-21T04:21:25;22.11;78.35
64563;SHT31;50961;48.184;11.636;2022-07-21T04:23:50;22.07;78.64
64563;SHT31;50961;48.184;11.636;2022-07-21T04:26:16;22.03;79.15
64563;SHT31;50961;48.184;11.636;2022-07-21T04:28:41;22.00;79.08
64563;SHT31;50961;48.184;11.636;2022-07-21T04:31:06;21.94;79.27
64563;SHT31;50961;48.184;11.636;2022-07-21T04:33:32;21.86;79.45
64563;SHT31;50961;48.184;11.636;2022-07-21T04:35:57;21.87;79.26
64563;SHT31;50961;48.184;11.636;2022-07-21T04:38:23;21.82;79.43
64563;SHT31;50961;48.184;11.636;2022-07-21T04:40:48;21.77;79.60
64563;SHT31;50961;48.184;11.636;2022-07-21T04:43:13;21.85;79.47
64563;SHT31;50961;48.184;11.636;2022-07-21T04:45:39;21.87;78.89
64563;SHT31;50961;48.184;11.636;2022-07-21T04:48:04;21.90;78.93
64563;SHT31;50961;48.184;11.636;2022-07-21T04:50:30;21.87;78.92
64563;SHT31;50961;48.184;11.636;2022-07-21T04:52:57;21.80;79.02
64563;SHT31;50961;48.184;11.636;2022-07-21T04:55:24;21.79;79.17
64563;SHT31;50961;48.184;11.636;2022-07-21T04:57:51;21.85;78.80
64563;SHT31;50961;48.184;11.636;2022-07-21T05:00:20;21.85;78.54
64563;SHT31;50961;48.184;11.636;2022-07-21T05:02:46;21.72;78.73
64563;SHT31;50961;48.184;11.636;2022-07-21T05:05:12;21.72;78.73
64563;SHT31;50961;48.184;11.636;2022-07-21T05:07:38;21.72;78.95
64563;SHT31;50961;48.184;11.636;2022-07-21T05:10:08;21.75;78.81
64563;SHT31;50961;48.184;11.636;2022-07-21T05:12:34;21.85;78.21
64563;SHT31;50961;48.184;11.636;2022-07-21T05:14:59;21.79;79.08
64563;SHT31;50961;48.184;11.636;2022-07-21T05:17:25;21.82;78.73
64563;SHT31;50961;48.184;11.636;2022-07-21T05:19:50;21.90;78.61
64563;SHT31;50961;48.184;11.636;2022-07-21T05:22:16;21.98;78.34
64563;SHT31;50961;48.184;11.636;2022-07-21T05:24:42;21.93;78.57
64563;SHT31;50961;48.184;11.636;2022-07-21T05:27:08;21.97;78.49
64563;SHT31;50961;48.184;11.636;2022-07-21T05:29:33;21.94;78.59
64563;SHT31;50961;48.184;11.636;2022-07-21T05:31:58;21.93;78.68
64563;SHT31;50961;48.184;11.636;2022-07-21T05:34:25;22.10;78.25
64563;SHT31;50961;48.184;11.636;2022-07-21T05:36:50;22.13;77.99
64563;SHT31;50961;48.184;11.636;2022-07-21T05:39:16;22.07;78.27
64563;SHT31;50961;48.184;11.636;2022-07-21T05:41:41;22.15;78.05
64563;SHT31;50961;48.184;11.636;2022-07-21T05:44:07;22.21;77.76
64563;SHT31;50961;48.184;11.636;2022-07-21T05:46:32;22.31;77.42
64563;SHT31;50961;48.184;11.636;2022-07-21T05:48:57;22.35;77.57
64563;SHT31;50961;48.184;11.636;2022-07-21T05:51:23;22.40;77.26
64563;SHT31;50961;48.184;11.636;2022-07-21T05:53:48;22.49;76.90
64563;SHT31;50961;48.184;11.636;2022-07-21T05:56:13;22.56;77.11
64563;SHT31;50961;48.184;11.636;2022-07-21T05:58:39;22.69;76.38
64563;SHT31;50961;48.184;11.636;2022-07-21T06:01:05;22.72;75.90
64563;SHT31;50961;48.184;11.636;2022-07-21T06:03:43;22.82;75.47
64563;SHT31;50961;48.184;11.636;2022-07-21T06:06:10;22.73;75.91
64563;SHT31;50961;48.184;11.636;2022-07-21T06:08:42;22.79;75.67
64563;SHT31;50961;48.184;11.636;2022-07-21T06:11:09;22.79;75.60
64563;SHT31;50961;48.184;11.636;2022-07-21T06:13:35;22.88;75.63
64563;SHT31;50961;48.184;11.636;2022-07-21T06:16:01;22.88;75.33
64563;SHT31;50961;48.184;11.636;2022-07-21T06:18:27;22.89;75.39
64563;SHT31;50961;48.184;11.636;2022-07-21T06:20:52;22.89;75.27
64563;SHT31;50961;48.184;11.636;2022-07-21T06:23:18;22.89;75.17
64563;SHT31;50961;48.184;11.636;2022-07-21T06:25:44;22.88;75.51
64563;SHT31;50961;48.184;11.636;2022-07-21T06:28:09;22.77;75.55
64563;SHT31;50961;48.184;11.636;2022-07-21T06:30:35;22.86;75.41
64563;SHT31;50961;48.184;11.636;2022-07-21T06:33:00;22.81;75.46
64563;SHT31;50961;48.184;11.636;2022-07-21T06:35:26;22.77;75.61
64563;SHT31;50961;48.184;11.636;2022-07-21T06:37:51;22.81;75.62
64563;SHT31;50961;48.184;11.636;2022-07-21T06:40:16;22.73;75.81
64563;SHT31;50961;48.184;11.636;2022-07-21T06:42:42;22.83;75.79
64563;SHT31;50961;48.184;11.636;2022-07-21T06:45:08;22.88;75.58
64563;SHT31;50961;48.184;11.636;2022-07-21T06:47:33;22.86;75.56
64563;SHT31;50961;48.184;11.636;2022-07-21T06:49:59;22.66;76.77
64563;SHT31;50961;48.184;11.636;2022-07-21T06:52:28;22.73;76.47
64563;SHT31;50961;48.184;11.636;2022-07-21T06:54:54;22.83;76.05
64563;SHT31;50961;48.184;11.636;2022-07-21T06:57:19;22.79;76.21
64563;SHT31;50961;48.184;11.636;2022-07-21T06:59:45;22.85;75.90
64563;SHT31;50961;48.184;11.636;2022-07-21T07:02:10;22.75;76.44
64563;SHT31;50961;48.184;11.636;2022-07-21T07:04:36;22.75;76.44
64563;SHT31;50961;48.184;11.636;2022-07-21T07:07:01;22.82;76.48
64563;SHT31;50961;48.184;11.636;2022-07-21T07:09:26;22.85;76.52
64563;SHT31;50961;48.184;11.636;2022-07-21T07:11:52;22.86;76.96
64563;SHT31;50961;48.184;11.636;2022-07-21T07:14:18;22.86;76.48
64563;SHT31;50961;48.184;11.636;2022-07-21T07:16:44;22.95;76.55
64563;SHT31;50961;48.184;11.636;2022-07-21T07:19:10;23.13;76.19
64563;SHT31;50961;48.184;11.636;2022-07-21T07:21:35;23.24;75.77
64563;SHT31;50961;48.184;11.636;2022-07-21T07:24:01;23.37;75.42
64563;SHT31;50961;48.184;11.636;2022-07-21T07:26:27;23.36;74.78
64563;SHT31;50961;48.184;11.636;2022-07-21T07:28:53;23.46;74.81
64563;SHT31;50961;48.184;11.636;2022-07-21T07:31:18;23.57;74.15
64563;SHT31;50961;48.184;11.636;2022-07-21T07:33:44;23.58;74.19
64563;SHT31;50961;48.184;11.636;2022-07-21T07:36:09;23.68;74.09
64563;SHT31;50961;48.184;11.636;2022-07-21T07:38:38;23.71;74.06
64563;SHT31;50961;48.184;11.636;2022-07-21T07:41:03;23.77;73.41
64563;SHT31;50961;48.184;11.636;2022-07-21T07:43:28;23.61;73.94
64563;SHT31;50961;48.184;11.636;2022-07-21T07:45:54;23.71;73.65
64563;SHT31;50961;48.184;11.636;2022-07-21T07:48:19;23.77;73.53
64563;SHT31;50961;48.184;11.636;2022-07-21T07:50:45;23.64;73.89
64563;SHT31;50961;48.184;11.636;2022-07-21T07:53:10;23.82;73.48
64563;SHT31;50961;48.184;11.636;2022-07-21T07:55:36;23.92;72.96
64563;SHT31;50961;48.184;11.636;2022-07-21T07:58:01;23.96;72.88
64563;SHT31;50961;48.184;11.636;2022-07-21T08:00:27;23.98;72.26
64563;SHT31;50961;48.184;11.636;2022-07-21T08:02:52;23.82;72.20
64563;SHT31;50961;48.184;11.636;2022-07-21T08:05:17;23.72;73.35
64563;SHT31;50961;48.184;11.636;2022-07-21T08:07:43;23.79;73.13
64563;SHT31;50961;48.184;11.636;2022-07-21T08:10:10;23.69;73.62
64563;SHT31;50961;48.184;11.636;2022-07-21T08:12:37;23.79;73.12
64563;SHT31;50961;48.184;11.636;2022-07-21T08:15:03;23.78;73.18
64563;SHT31;50961;48.184;11.636;2022-07-21T08:17:29;23.79;73.54
64563;SHT31;50961;48.184;11.636;2022-07-21T08:19:54;23.82;73.60
64563;SHT31;50961;48.184;11.636;2022-07-21T08:22:20;23.68;73.51
64563;SHT31;50961;48.184;11.636;2022-07-21T08:24:45;23.94;72.36
64563;SHT31;50961;48.184;11.636;2022-07-21T08:27:11;24.04;72.29
64563;SHT31;50961;48.184;11.636;2022-07-21T08:29:36;24.10;72.74
64563;SHT31;50961;48.184;11.636;2022-07-21T08:32:02;24.19;72.25
64563;SHT31;50961;48.184;11.636;2022-07-21T08:34:27;24.30;72.07
64563;SHT31;50961;48.184;11.636;2022-07-21T08:36:53;24.40;71.56
64563;SHT31;50961;48.184;11.636;2022-07-21T08:39:19;24.46;71.16
64563;SHT31;50961;48.184;11.636;2022-07-21T08:41:44;24.61;71.32
64563;SHT31;50961;48.184;11.636;2022-07-21T08:44:09;24.65;70.93
64563;SHT31;50961;48.184;11.636;2022-07-21T08:46:38;24.67;70.64
64563;SHT31;50961;48.184;11.636;2022-07-21T08:49:06;24.59;71.02
64563;SHT31;50961;48.184;11.636;2022-07-21T08:51:33;24.36;71.34
64563;SHT31;50961;48.184;11.636;2022-07-21T08:54:02;24.24;71.43
64563;SHT31;50961;48.184;11.636;2022-07-21T08:56:28;24.29;71.47
64563;SHT31;50961;48.184;11.636;2022-07-21T08:58:54;24.20;71.50
64563;SHT31;50961;48.184;11.636;2022-07-21T09:01:19;24.23;71.53
64563;SHT31;50961;48.184;11.636;2022-07-21T09:03:52;24.10;71.74
64563;SHT31;50961;48.184;11.636;2022-07-21T09:06:18;24.12;71.89
64563;SHT31;50961;48.184;11.636;2022-07-21T09:08:49;24.15;71.82
64563;SHT31;50961;48.184;11.636;2022-07-21T09:13:45;24.09;71.88
64563;SHT31;50961;48.184;11.636;2022-07-21T09:16:10;23.98;72.18
64563;SHT31;50961;48.184;11.636;2022-07-21T09:18:50;23.95;72.22
64563;SHT31;50961;48.184;11.636;2022-07-21T09:21:18;24.05;71.82
64563;SHT31;50961;48.184;11.636;2022-07-21T09:23:43;24.06;72.12
64563;SHT31;50961;48.184;11.636;2022-07-21T09:26:09;24.08;72.21
64563;SHT31;50961;48.184;11.636;2022-07-21T09:28:34;24.02;72.23
64563;SHT31;50961;48.184;11.636;2022-07-21T09:31:04;24.06;71.87
64563;SHT31;50961;48.184;11.636;2022-07-21T09:33:39;24.04;72.03
64563;SHT31;50961;48.184;11.636;2022-07-21T09:36:09;24.01;71.59
64563;SHT31;50961;48.184;11.636;2022-07-21T09:38:41;24.04;71.85
64563;SHT31;50961;48.184;11.636;2022-07-21T09:41:12;24.10;71.47
64563;SHT31;50961;48.184;11.636;2022-07-21T09:43:44;24.17;71.30
64563;SHT31;50961;48.184;11.636;2022-07-21T09:48:42;24.19;71.02
64563;SHT31;50961;48.184;11.636;2022-07-21T09:53:54;23.88;71.18
64563;SHT31;50961;48.184;11.636;2022-07-21T09:56:20;23.98;70.68
64563;SHT31;50961;48.184;11.636;2022-07-21T09:58:47;23.90;71.28
64563;SHT31;50961;48.184;11.636;2022-07-21T10:01:14;23.95;71.45
64563;SHT31;50961;48.184;11.636;2022-07-21T10:03:42;24.04;70.76
64563;SHT31;50961;48.184;11.636;2022-07-21T10:06:08;23.94;70.88
64563;SHT31;50961;48.184;11.636;2022-07-21T10:08:34;23.84;70.84
64563;SHT31;50961;48.184;11.636;2022-07-21T10:11:00;23.90;70.84
64563;SHT31;50961;48.184;11.636;2022-07-21T10:13:27;23.86;70.71
64563;SHT31;50961;48.184;11.636;2022-07-21T10:15:53;23.75;71.48
64563;SHT31;50961;48.184;11.636;2022-07-21T10:18:22;23.77;71.47
64563;SHT31;50961;48.184;11.636;2022-07-21T10:20:55;23.78;71.60
64563;SHT31;50961;48.184;11.636;2022-07-21T10:23:34;23.69;71.94
64563;SHT31;50961;48.184;11.636;2022-07-21T10:26:01;23.82;71.80
64563;SHT31;50961;48.184;11.636;2022-07-21T10:28:28;23.82;72.42
64563;SHT31;50961;48.184;11.636;2022-07-21T10:30:55;23.72;73.66
64563;SHT31;50961;48.184;11.636;2022-07-21T10:39:12;23.64;74.69
64563;SHT31;50961;48.184;11.636;2022-07-21T10:41:52;23.65;74.30
64563;SHT31;50961;48.184;11.636;2022-07-21T10:47:19;23.50;74.39
64563;SHT31;50961;48.184;11.636;2022-07-21T10:49:56;23.34;75.71
64563;SHT31;50961;48.184;11.636;2022-07-21T11:00:28;23.21;76.47
64563;SHT31;50961;48.184;11.636;2022-07-21T11:03:12;23.26;76.44
64563;SHT31;50961;48.184;11.636;2022-07-21T11:08:47;23.07;76.82
64563;SHT31;50961;48.184;11.636;2022-07-21T11:11:24;23.21;76.35
64563;SHT31;50961;48.184;11.636;2022-07-21T11:19:45;23.21;76.68
64563;SHT31;50961;48.184;11.636;2022-07-21T11:22:18;23.28;76.51
64563;SHT31;50961;48.184;11.636;2022-07-21T11:24:51;23.26;76.34
64563;SHT31;50961;48.184;11.636;2022-07-21T11:27:19;23.21;77.23
64563;SHT31;50961;48.184;11.636;2022-07-21T11:29:47;23.11;77.60
64563;SHT31;50961;48.184;11.636;2022-07-21T11:32:14;23.11;77.30
64563;SHT31;50961;48.184;11.636;2022-07-21T11:37:30;22.93;78.02
64563;SHT31;50961;48.184;11.636;2022-07-21T11:39:56;22.95;78.06
64563;SHT31;50961;48.184;11.636;2022-07-21T11:42:24;22.89;78.30
64563;SHT31;50961;48.184;11.636;2022-07-21T11:44:50;22.82;77.62
64563;SHT31;50961;48.184;11.636;2022-07-21T11:47:15;22.89;77.76
64563;SHT31;50961;48.184;11.636;2022-07-21T11:49:43;22.98;77.81
64563;SHT31;50961;48.184;11.636;2022-07-21T11:52:14;23.06;77.62
64563;SHT31;50961;48.184;11.636;2022-07-21T11:54:47;23.00;77.38
64563;SHT31;50961;48.184;11.636;2022-07-21T11:57:14;23.07;77.40
64563;SHT31;50961;48.184;11.636;2022-07-21T11:59:41;23.19;76.80
64563;SHT31;50961;48.184;11.636;2022-07-21T12:02:17;23.31;76.30
64563;SHT31;50961;48.184;11.636;2022-07-21T12:04:46;23.28;77.06
64563;SHT31;50961;48.184;11.636;2022-07-21T12:09:49;23.31;75.15
64563;SHT31;50961;48.184;11.636;2022-07-21T12:12:15;23.47;74.84
64563;SHT31;50961;48.184;11.636;2022-07-21T12:14:50;23.47;74.27
64563;SHT31;50961;48.184;11.636;2022-07-21T12:17:35;23.62;74.64
64563;SHT31;50961;48.184;11.636;2022-07-21T12:20:01;23.75;74.42
64563;SHT31;50961;48.184;11.636;2022-07-21T12:22:42;23.78;73.67
64563;SHT31;50961;48.184;11.636;2022-07-21T12:25:13;23.89;73.00
64563;SHT31;50961;48.184;11.636;2022-07-21T12:27:42;23.86;73.01
64563;SHT31;50961;48.184;11.636;2022-07-21T12:30:09;24.04;73.39
64563;SHT31;50961;48.184;11.636;2022-07-21T12:32:47;24.10;72.83
64563;SHT31;50961;48.184;11.636;2022-07-21T12:35:22;24.17;72.03
64563;SHT31;50961;48.184;11.636;2022-07-21T12:38:04;24.13;71.54
64563;SHT31;50961;48.184;11.636;2022-07-21T12:40:31;24.36;71.51
64563;SHT31;50961;48.184;11.636;2022-07-21T12:45:29;24.57;70.74
64563;SHT31;50961;48.184;11.636;2022-07-21T12:48:11;24.54;69.32
64563;SHT31;50961;48.184;11.636;2022-07-21T12:50:37;24.59;68.68
64563;SHT31;50961;48.184;11.636;2022-07-21T12:53:07;24.70;68.85
64563;SHT31;50961;48.184;11.636;2022-07-21T12:55:32;24.70;67.83
64563;SHT31;50961;48.184;11.636;2022-07-21T12:57:58;24.87;67.73
64563;SHT31;50961;48.184;11.636;2022-07-21T13:00:23;24.90;66.80
64563;SHT31;50961;48.184;11.636;2022-07-21T13:02:53;24.99;66.99
64563;SHT31;50961;48.184;11.636;2022-07-21T13:05:20;25.11;66.72
64563;SHT31;50961;48.184;11.636;2022-07-21T13:07:46;25.09;67.04
64563;SHT31;50961;48.184;11.636;2022-07-21T13:10:12;25.18;65.50
64563;SHT31;50961;48.184;11.636;2022-07-21T13:12:38;25.29;64.80
64563;SHT31;50961;48.184;11.636;2022-07-21T13:15:04;25.29;65.28
64563;SHT31;50961;48.184;11.636;2022-07-21T13:17:30;25.26;65.47
64563;SHT31;50961;48.184;11.636;2022-07-21T13:19:55;25.28;64.32
64563;SHT31;50961;48.184;11.636;2022-07-21T13:22:21;25.26;64.95
64563;SHT31;50961;48.184;11.636;2022-07-21T13:24:46;25.25;64.97
64563;SHT31;50961;48.184;11.636;2022-07-21T13:27:12;25.12;64.18
64563;SHT31;50961;48.184;11.636;2022-07-21T13:29:37;25.18;64.53
64563;SHT31;50961;48.184;11.636;2022-07-21T13:32:03;25.05;64.51
64563;SHT31;50961;48.184;11.636;2022-07-21T13:34:29;25.09;64.68
64563;SHT31;50961;48.184;11.636;2022-07-21T13:36:54;25.09;65.38
64563;SHT31;50961;48.184;11.636;2022-07-21T13:39:20;25.08;65.51
64563;SHT31;50961;48.184;11.636;2022-07-21T13:41:47;25.15;65.55
64563;SHT31;50961;48.184;11.636;2022-07-21T13:44:13;25.18;65.74
64563;SHT31;50961;48.184;11.636;2022-07-21T13:46:38;25.20;65.43
64563;SHT31;50961;48.184;11.636;2022-07-21T13:49:04;24.99;65.94
64563;SHT31;50961;48.184;11.636;2022-07-21T13:51:29;24.92;66.34
64563;SHT31;50961;48.184;11.636;2022-07-21T13:53:54;24.67;67.66
64563;SHT31;50961;48.184;11.636;2022-07-21T13:56:20;24.70;67.35
64563;SHT31;50961;48.184;11.636;2022-07-21T13:58:46;24.56;67.55
64563;SHT31;50961;48.184;11.636;2022-07-21T14:01:12;24.51;67.87
64563;SHT31;50961;48.184;11.636;2022-07-21T14:03:38;24.65;67.16
64563;SHT31;50961;48.184;11.636;2022-07-21T14:06:04;24.67;67.38
64563;SHT31;50961;48.184;11.636;2022-07-21T14:08:30;24.60;67.52
64563;SHT31;50961;48.184;11.636;2022-07-21T14:10:55;24.75;67.18
64563;SHT31;50961;48.184;11.636;2022-07-21T14:13:20;24.63;67.88
64563;SHT31;50961;48.184;11.636;2022-07-21T14:15:46;24.50;67.72
64563;SHT31;50961;48.184;11.636;2022-07-21T14:18:11;24.70;67.14
64563;SHT31;50961;48.184;11.636;2022-07-21T14:20:38;24.70;67.23
64563;SHT31;50961;48.184;11.636;2022-07-21T14:23:03;24.87;66.83
64563;SHT31;50961;48.184;11.636;2022-07-21T14:25:29;25.11;66.50
64563;SHT31;50961;48.184;11.636;2022-07-21T14:27:56;25.16;66.38
64563;SHT31;50961;48.184;11.636;2022-07-21T14:30:23;25.25;65.26
64563;SHT31;50961;48.184;11.636;2022-07-21T14:32:49;25.59;64.45
64563;SHT31;50961;48.184;11.636;2022-07-21T14:35:15;25.84;63.40
64563;SHT31;50961;48.184;11.636;2022-07-21T14:37:42;25.98;62.15
64563;SHT31;50961;48.184;11.636;2022-07-21T14:40:08;26.18;61.31
64563;SHT31;50961;48.184;11.636;2022-07-21T14:42:35;26.25;60.47
64563;SHT31;50961;48.184;11.636;2022-07-21T14:45:00;26.41;61.06
64563;SHT31;50961;48.184;11.636;2022-07-21T14:47:26;26.55;60.39
64563;SHT31;50961;48.184;11.636;2022-07-21T14:49:51;26.31;59.16
64563;SHT31;50961;48.184;11.636;2022-07-21T14:52:17;26.68;58.89
64563;SHT31;50961;48.184;11.636;2022-07-21T14:54:42;27.06;59.09
64563;SHT31;50961;48.184;11.636;2022-07-21T14:57:08;27.24;58.26
64563;SHT31;50961;48.184;11.636;2022-07-21T14:59:33;27.35;56.37
64563;SHT31;50961;48.184;11.636;2022-07-21T15:01:59;27.41;55.76
64563;SHT31;50961;48.184;11.636;2022-07-21T15:04:24;27.27;56.95
64563;SHT31;50961;48.184;11.636;2022-07-21T15:06:50;26.99;57.40
64563;SHT31;50961;48.184;11.636;2022-07-21T15:09:16;27.21;58.12
64563;SHT31;50961;48.184;11.636;2022-07-21T15:11:41;27.14;57.74
64563;SHT31;50961;48.184;11.636;2022-07-21T15:14:07;27.48;56.70
64563;SHT31;50961;48.184;11.636;2022-07-21T15:16:32;27.39;56.87
64563;SHT31;50961;48.184;11.636;2022-07-21T15:18:58;27.69;55.88
64563;SHT31;50961;48.184;11.636;2022-07-21T15:21:23;27.63;56.45
64563;SHT31;50961;48.184;11.636;2022-07-21T15:23:49;27.72;56.11
64563;SHT31;50961;48.184;11.636;2022-07-21T15:26:15;27.69;55.61
64563;SHT31;50961;48.184;11.636;2022-07-21T15:28:40;27.65;55.46
64563;SHT31;50961;48.184;11.636;2022-07-21T15:31:06;27.76;56.53
64563;SHT31;50961;48.184;11.636;2022-07-21T15:33:32;27.85;56.00
64563;SHT31;50961;48.184;11.636;2022-07-21T15:35:57;27.88;55.57
64563;SHT31;50961;48.184;11.636;2022-07-21T15:38:23;27.67;55.60
64563;SHT31;50961;48.184;11.636;2022-07-21T15:40:49;27.48;56.77
64563;SHT31;50961;48.184;11.636;2022-07-21T15:43:15;27.27;56.78
64563;SHT31;50961;48.184;11.636;2022-07-21T15:45:41;27.08;57.27
64563;SHT31;50961;48.184;11.636;2022-07-21T15:48:07;27.03;58.10
64563;SHT31;50961;48.184;11.636;2022-07-21T15:50:33;26.87;57.80
64563;SHT31;50961;48.184;11.636;2022-07-21T15:52:59;26.75;57.72
64563;SHT31;50961;48.184;11.636;2022-07-21T15:55:24;26.79;57.56